createdAt,value
2023-08-29T00:01:03.191Z,1.63
2023-08-29T00:03:30.095Z,1.25
2023-08-29T00:06:06.987Z,1.40
2023-08-29T00:08:34.033Z,1.35
2023-08-29T00:11:02.147Z,1.50
2023-08-29T00:13:29.060Z,1.55
2023-08-29T00:15:55.970Z,1.50
2023-08-29T00:18:23.314Z,1.40
2023-08-29T00:20:50.586Z,1.20
2023-08-29T00:23:17.557Z,1.80
2023-08-29T00:25:44.485Z,1.45
2023-08-29T00:28:11.409Z,1.92
2023-08-29T00:30:41.583Z,1.63
2023-08-29T00:33:10.255Z,2.05
2023-08-29T00:35:37.619Z,2.00
2023-08-29T00:38:05.085Z,1.80
2023-08-29T00:40:32.629Z,1.63
2023-08-29T00:43:03.465Z,2.60
2023-08-29T00:45:36.839Z,1.65
2023-08-29T00:48:05.111Z,1.65
2023-08-29T00:50:32.563Z,2.17
2023-08-29T00:53:02.362Z,2.17
2023-08-29T00:55:30.470Z,1.90
2023-08-29T00:57:58.103Z,1.67
2023-08-29T01:00:26.487Z,2.00
2023-08-29T01:02:53.834Z,1.80
2023-08-29T01:05:20.859Z,1.90
2023-08-29T01:07:52.669Z,2.28
2023-08-29T01:10:29.491Z,2.10
2023-08-29T01:13:11.674Z,2.08
2023-08-29T01:15:41.581Z,2.13
2023-08-29T01:18:11.262Z,2.25
2023-08-29T01:20:38.860Z,2.30
2023-08-29T01:23:31.234Z,2.08
2023-08-29T01:26:16.824Z,2.10
2023-08-29T01:28:45.585Z,2.10
2023-08-29T01:31:13.674Z,2.60
2023-08-29T01:33:43.954Z,2.67
2023-08-29T01:36:10.992Z,2.45
2023-08-29T01:38:37.923Z,2.10
2023-08-29T01:41:04.856Z,2.30
2023-08-29T01:43:31.864Z,2.60
2023-08-29T01:45:58.821Z,2.38
2023-08-29T01:48:25.877Z,2.83
2023-08-29T01:50:54.440Z,2.70
2023-08-29T01:53:21.383Z,2.60
2023-08-29T01:55:50.261Z,2.90
2023-08-29T01:58:18.137Z,2.50
2023-08-29T02:00:45.773Z,2.58
2023-08-29T02:03:12.885Z,2.35
2023-08-29T02:05:39.908Z,2.47
2023-08-29T02:08:07.257Z,2.70
2023-08-29T02:10:34.432Z,2.65
2023-08-29T02:13:01.387Z,2.58
2023-08-29T02:15:28.326Z,2.83
2023-08-29T02:17:55.317Z,2.42
2023-08-29T02:20:23.609Z,2.75
2023-08-29T02:22:50.502Z,2.33
2023-08-29T02:25:17.420Z,2.38
2023-08-29T02:27:44.324Z,2.33
2023-08-29T02:30:11.778Z,2.42
2023-08-29T02:32:38.865Z,2.13
2023-08-29T02:35:06.199Z,2.47
2023-08-29T02:37:33.690Z,2.55
2023-08-29T02:40:00.577Z,2.33
2023-08-29T02:42:27.636Z,1.88
2023-08-29T02:44:54.574Z,1.83
2023-08-29T02:47:21.437Z,1.70
2023-08-29T02:49:48.383Z,1.98
2023-08-29T02:52:15.339Z,1.80
2023-08-29T02:54:42.336Z,2.00
2023-08-29T02:57:09.268Z,2.00
2023-08-29T02:59:36.218Z,1.85
2023-08-29T03:02:03.229Z,2.30
2023-08-29T03:04:30.928Z,1.88
2023-08-29T03:06:58.154Z,1.92
2023-08-29T03:09:25.057Z,1.88
2023-08-29T03:11:51.948Z,2.00
2023-08-29T03:14:18.845Z,2.22
2023-08-29T03:16:45.868Z,1.65
2023-08-29T03:19:12.875Z,1.75
2023-08-29T03:21:39.823Z,2.20
2023-08-29T03:24:06.942Z,1.42
2023-08-29T03:26:33.917Z,1.75
2023-08-29T03:29:00.851Z,1.75
2023-08-29T03:31:27.807Z,1.50
2023-08-29T03:33:54.717Z,1.35
2023-08-29T03:36:21.642Z,1.60
2023-08-29T03:38:48.532Z,1.48
2023-08-29T03:41:15.418Z,1.52
2023-08-29T03:43:42.347Z,1.15
2023-08-29T03:46:09.509Z,1.50
2023-08-29T03:48:37.819Z,1.45
2023-08-29T03:51:05.274Z,1.40
2023-08-29T03:53:32.191Z,1.20
2023-08-29T03:56:03.822Z,1.42
2023-08-29T03:58:31.773Z,1.83
2023-08-29T04:00:59.342Z,1.35
2023-08-29T04:03:27.088Z,1.40
2023-08-29T04:05:54.258Z,1.20
2023-08-29T04:08:21.209Z,1.38
2023-08-29T04:10:48.144Z,1.23
2023-08-29T04:13:15.378Z,1.33
2023-08-29T04:15:43.103Z,1.27
2023-08-29T04:18:11.428Z,1.40
2023-08-29T04:20:38.665Z,1.20
2023-08-29T04:23:05.962Z,1.38
2023-08-29T04:25:34.629Z,1.10
2023-08-29T04:28:01.583Z,1.20
2023-08-29T04:30:28.544Z,1.05
2023-08-29T04:32:55.464Z,1.33
2023-08-29T04:35:22.523Z,1.08
2023-08-29T04:37:50.279Z,1.02
2023-08-29T04:40:19.092Z,1.42
2023-08-29T04:42:46.376Z,1.40
2023-08-29T04:45:13.391Z,1.05
2023-08-29T04:47:40.690Z,1.30
2023-08-29T04:50:08.453Z,1.15
2023-08-29T04:52:35.613Z,1.65
2023-08-29T04:55:02.692Z,1.48
2023-08-29T04:57:29.657Z,1.50
2023-08-29T04:59:56.562Z,1.10
2023-08-29T05:02:23.791Z,1.33
2023-08-29T05:04:50.752Z,1.30
2023-08-29T05:07:17.668Z,1.45
2023-08-29T05:09:44.611Z,1.38
2023-08-29T05:12:11.649Z,1.52
2023-08-29T05:14:39.190Z,1.30
2023-08-29T05:17:06.472Z,1.10
2023-08-29T05:19:33.385Z,1.35
2023-08-29T05:22:00.314Z,1.60
2023-08-29T05:24:27.265Z,1.30
2023-08-29T05:26:54.566Z,1.20
2023-08-29T05:29:21.618Z,1.45
2023-08-29T05:31:48.562Z,1.85
2023-08-29T05:34:15.468Z,1.30
2023-08-29T05:36:42.520Z,1.48
2023-08-29T05:39:09.493Z,1.40
2023-08-29T05:41:37.193Z,1.38
2023-08-29T05:44:04.235Z,1.40
2023-08-29T05:46:31.447Z,1.40
2023-08-29T05:48:58.653Z,1.15
2023-08-29T05:51:25.530Z,1.30
2023-08-29T05:53:52.436Z,1.83
2023-08-29T05:56:19.324Z,1.60
2023-08-29T05:58:46.247Z,1.42
2023-08-29T06:01:13.337Z,1.40
2023-08-29T06:03:40.376Z,1.65
2023-08-29T06:06:07.332Z,1.20
2023-08-29T06:08:34.813Z,1.70
2023-08-29T06:11:02.344Z,1.50
2023-08-29T06:13:29.284Z,1.70
2023-08-29T06:15:56.174Z,1.35
2023-08-29T06:18:23.325Z,1.63
2023-08-29T06:20:50.251Z,1.85
2023-08-29T06:23:17.166Z,1.88
2023-08-29T06:25:46.411Z,1.40
2023-08-29T06:28:13.429Z,1.38
2023-08-29T06:30:40.522Z,1.27
2023-08-29T06:33:11.302Z,1.70
2023-08-29T06:35:45.786Z,3.65
2023-08-29T06:38:12.832Z,1.50
2023-08-29T06:40:39.735Z,1.83
2023-08-29T06:43:06.652Z,1.38
2023-08-29T06:45:34.929Z,1.77
2023-08-29T06:48:01.966Z,1.85
2023-08-29T06:50:28.985Z,1.70
2023-08-29T06:52:55.917Z,1.63
2023-08-29T06:55:22.883Z,1.83
2023-08-29T06:57:49.815Z,1.77
2023-08-29T07:00:16.896Z,1.60
2023-08-29T07:02:45.312Z,1.77
2023-08-29T07:05:12.295Z,1.30
2023-08-29T07:07:39.209Z,1.33
2023-08-29T07:10:06.355Z,1.30
2023-08-29T07:12:34.076Z,1.42
2023-08-29T07:15:01.184Z,1.52
2023-08-29T07:17:28.788Z,1.73
2023-08-29T07:19:55.723Z,1.58
2023-08-29T07:22:24.494Z,1.38
2023-08-29T07:24:52.698Z,1.23
2023-08-29T07:27:20.294Z,1.60
2023-08-29T07:29:47.864Z,1.23
2023-08-29T07:32:14.764Z,1.55
2023-08-29T07:34:41.972Z,1.50
2023-08-29T07:37:09.401Z,1.58
2023-08-29T07:39:39.532Z,1.88
2023-08-29T07:42:06.772Z,1.30
2023-08-29T07:44:36.799Z,1.60
2023-08-29T07:47:14.932Z,1.40
2023-08-29T07:49:43.772Z,1.50
2023-08-29T07:52:10.999Z,1.52
2023-08-29T07:54:38.119Z,1.73
2023-08-29T07:57:07.810Z,1.30
2023-08-29T07:59:35.042Z,1.58
2023-08-29T08:02:02.075Z,1.60
2023-08-29T08:04:29.122Z,1.95
2023-08-29T08:06:56.048Z,1.90
2023-08-29T08:09:23.008Z,1.98
2023-08-29T08:11:50.050Z,1.63
2023-08-29T08:14:17.533Z,1.90
2023-08-29T08:16:44.799Z,2.00
2023-08-29T08:19:12.185Z,1.80
2023-08-29T08:21:39.174Z,3.20
2023-08-29T08:24:06.478Z,1.83
2023-08-29T08:26:35.279Z,1.85
2023-08-29T08:29:02.248Z,2.58
2023-08-29T08:31:29.366Z,2.25
2023-08-29T08:33:56.345Z,2.25
2023-08-29T08:36:24.417Z,2.35
2023-08-29T08:38:51.476Z,2.42
2023-08-29T08:41:19.900Z,2.40
2023-08-29T08:43:49.397Z,2.55
2023-08-29T08:46:18.246Z,2.30
2023-08-29T08:48:45.249Z,2.88
2023-08-29T08:51:13.704Z,3.00
2023-08-29T08:53:42.028Z,2.47
2023-08-29T08:56:09.811Z,2.80
2023-08-29T08:58:37.781Z,3.20
2023-08-29T09:01:05.584Z,3.88
2023-08-29T09:03:32.739Z,2.75
2023-08-29T09:05:59.673Z,2.88
2023-08-29T09:08:26.685Z,2.78
2023-08-29T09:10:53.642Z,3.72
2023-08-29T09:13:21.431Z,4.43
2023-08-29T09:15:48.639Z,3.45
2023-08-29T09:18:24.835Z,3.33
2023-08-29T09:20:52.484Z,3.80
2023-08-29T09:23:24.316Z,3.33
2023-08-29T09:26:00.670Z,3.80
2023-08-29T09:28:28.858Z,3.88
2023-08-29T09:30:56.608Z,4.03
2023-08-29T09:33:23.621Z,4.63
2023-08-29T09:35:51.348Z,5.60
2023-08-29T09:38:18.904Z,4.35
2023-08-29T09:40:50.128Z,5.20
2023-08-29T09:43:17.936Z,3.97
2023-08-29T09:45:50.375Z,4.60
2023-08-29T09:48:17.781Z,5.30
2023-08-29T09:50:45.294Z,4.57
2023-08-29T09:53:16.178Z,5.45
2023-08-29T09:56:09.004Z,4.32
2023-08-29T09:58:38.687Z,4.63
2023-08-29T10:01:09.224Z,4.72
2023-08-29T10:03:36.687Z,5.38
2023-08-29T10:06:08.374Z,6.30
2023-08-29T10:08:47.410Z,6.25
2023-08-29T10:11:14.481Z,5.10
2023-08-29T10:13:42.578Z,4.50
2023-08-29T10:16:10.596Z,4.18
2023-08-29T10:18:38.418Z,3.88
2023-08-29T10:21:05.868Z,4.28
2023-08-29T10:23:33.097Z,3.65
2023-08-29T10:26:00.972Z,3.58
2023-08-29T10:28:30.047Z,3.28
2023-08-29T10:31:02.349Z,3.45
2023-08-29T10:33:29.502Z,3.28
2023-08-29T10:35:56.530Z,3.55
2023-08-29T10:38:24.134Z,3.90
2023-08-29T10:41:01.991Z,3.88
2023-08-29T10:43:30.014Z,5.35
2023-08-29T10:45:57.945Z,3.70
2023-08-29T10:48:30.880Z,4.10
2023-08-29T10:51:19.835Z,3.70
2023-08-29T10:53:52.031Z,3.83
2023-08-29T10:56:19.715Z,4.32
2023-08-29T10:58:48.293Z,4.00
2023-08-29T11:01:27.548Z,3.88
2023-08-29T11:03:55.312Z,3.70
2023-08-29T11:06:26.950Z,3.47
2023-08-29T11:09:19.335Z,3.25
2023-08-29T11:14:14.101Z,4.22
2023-08-29T11:17:13.339Z,4.00
2023-08-29T11:19:42.391Z,4.10
2023-08-29T11:22:10.338Z,4.25
2023-08-29T11:24:37.459Z,3.50
2023-08-29T11:27:05.859Z,3.92
2023-08-29T11:29:39.622Z,3.35
2023-08-29T11:32:06.768Z,3.47
2023-08-29T11:34:37.714Z,3.20
2023-08-29T11:37:11.684Z,3.53
2023-08-29T11:43:09.478Z,2.95
2023-08-29T11:45:48.417Z,2.60
2023-08-29T11:48:14.014Z,3.65
2023-08-29T11:50:42.621Z,3.03
2023-08-29T11:53:09.611Z,2.78
2023-08-29T11:55:36.619Z,2.92
2023-08-29T11:58:03.623Z,3.15
2023-08-29T12:00:33.647Z,2.50
2023-08-29T12:03:00.657Z,2.70
2023-08-29T12:05:27.659Z,2.58
2023-08-29T12:07:54.628Z,3.20
2023-08-29T12:10:21.581Z,3.08
2023-08-29T12:12:49.727Z,2.70
2023-08-29T12:15:24.232Z,3.20
2023-08-29T12:17:57.987Z,3.20
2023-08-29T12:20:35.069Z,2.83
2023-08-29T12:23:04.131Z,2.78
2023-08-29T12:25:31.026Z,3.70
2023-08-29T12:27:57.992Z,2.83
2023-08-29T12:30:24.892Z,2.65
2023-08-29T12:32:52.209Z,2.60
2023-08-29T12:35:19.400Z,2.80
2023-08-29T12:37:47.700Z,2.85
2023-08-29T12:40:14.755Z,3.03
2023-08-29T12:42:42.714Z,3.30
2023-08-29T12:45:09.952Z,2.90
2023-08-29T12:47:37.105Z,3.38
2023-08-29T12:50:04.416Z,3.63
2023-08-29T12:52:31.465Z,3.38
2023-08-29T12:54:58.616Z,3.60
2023-08-29T12:57:25.532Z,3.28
2023-08-29T12:59:52.450Z,3.30
2023-08-29T13:02:19.392Z,3.40
2023-08-29T13:04:46.630Z,3.58
2023-08-29T13:07:13.553Z,3.72
2023-08-29T13:09:42.247Z,3.40
2023-08-29T13:12:09.517Z,7.50
2023-08-29T13:14:39.539Z,3.38
2023-08-29T13:17:09.389Z,3.78
2023-08-29T13:19:38.453Z,3.67
2023-08-29T13:22:06.310Z,3.58
2023-08-29T13:24:33.504Z,3.60
2023-08-29T13:27:00.495Z,3.97
2023-08-29T13:29:27.852Z,3.63
2023-08-29T13:31:54.993Z,4.13
2023-08-29T13:34:21.971Z,4.28
2023-08-29T13:36:49.203Z,5.03
2023-08-29T13:39:16.203Z,4.45
2023-08-29T13:41:43.188Z,4.13
2023-08-29T13:44:10.129Z,4.13
2023-08-29T13:46:37.051Z,4.55
2023-08-29T13:49:04.470Z,4.40
2023-08-29T13:51:31.472Z,4.32
2023-08-29T13:53:58.418Z,4.80
2023-08-29T13:56:25.434Z,4.90
2023-08-29T13:58:52.627Z,3.72
2023-08-29T14:01:19.841Z,4.38
2023-08-29T14:03:46.900Z,4.45
2023-08-29T14:06:13.977Z,3.92
2023-08-29T14:08:40.888Z,4.22
2023-08-29T14:11:08.497Z,4.38
2023-08-29T14:13:35.882Z,3.90
2023-08-29T14:16:03.827Z,3.92
2023-08-29T14:18:31.686Z,4.30
2023-08-29T14:20:58.761Z,4.13
2023-08-29T14:23:26.514Z,5.35
2023-08-29T14:25:56.388Z,4.03
2023-08-29T14:28:23.380Z,4.82
2023-08-29T14:30:50.264Z,5.15
2023-08-29T14:33:17.267Z,4.50
2023-08-29T14:35:44.299Z,5.53
2023-08-29T14:38:11.318Z,7.30
2023-08-29T14:40:38.543Z,5.55
2023-08-29T14:43:06.119Z,5.43
2023-08-29T14:45:34.024Z,5.80
2023-08-29T14:48:01.123Z,4.65
2023-08-29T14:50:30.969Z,6.13
2023-08-29T14:52:57.890Z,5.53
2023-08-29T14:55:24.825Z,4.82
2023-08-29T14:57:51.886Z,6.28
2023-08-29T15:00:18.967Z,6.50
2023-08-29T15:02:46.833Z,4.95
2023-08-29T15:05:13.884Z,4.50
2023-08-29T15:07:41.976Z,6.38
2023-08-29T15:10:09.586Z,7.30
2023-08-29T15:12:36.593Z,23.65
2023-08-29T15:15:03.743Z,32.33
2023-08-29T15:17:30.974Z,16.58
2023-08-29T15:19:58.400Z,7.78
2023-08-29T15:22:25.520Z,5.60
2023-08-29T15:24:52.642Z,5.60
2023-08-29T15:27:19.519Z,5.18
2023-08-29T15:29:46.408Z,4.63
2023-08-29T15:32:13.340Z,4.25
2023-08-29T15:34:40.268Z,4.68
2023-08-29T15:37:07.262Z,4.22
2023-08-29T15:39:34.713Z,4.35
2023-08-29T15:42:01.840Z,4.35
2023-08-29T15:44:32.546Z,4.88
2023-08-29T15:46:59.459Z,3.97
2023-08-29T15:49:26.790Z,3.97
2023-08-29T15:51:53.780Z,4.38
2023-08-29T15:54:20.687Z,4.43
2023-08-29T15:56:47.608Z,4.82
2023-08-29T15:59:14.786Z,4.93
2023-08-29T16:01:41.765Z,5.03
2023-08-29T16:04:08.823Z,6.15
2023-08-29T16:06:35.728Z,5.40
2023-08-29T16:09:02.677Z,4.60
2023-08-29T16:11:29.602Z,4.97
2023-08-29T16:13:56.512Z,6.43
2023-08-29T16:16:23.464Z,5.20
2023-08-29T16:18:50.449Z,6.32
2023-08-29T16:21:17.866Z,5.60
2023-08-29T16:23:44.933Z,5.55
2023-08-29T16:26:16.611Z,5.75
2023-08-29T16:28:44.522Z,5.22
2023-08-29T16:31:11.681Z,6.30
2023-08-29T16:33:38.647Z,5.13
2023-08-29T16:36:06.311Z,5.85
2023-08-29T16:38:33.464Z,5.50
2023-08-29T16:41:00.416Z,5.80
2023-08-29T16:43:27.971Z,6.82
2023-08-29T16:45:54.946Z,5.82
2023-08-29T16:48:22.006Z,5.10
2023-08-29T16:50:50.388Z,5.88
2023-08-29T16:53:17.891Z,6.97
2023-08-29T16:55:44.858Z,6.63
2023-08-29T16:58:11.941Z,6.55
2023-08-29T17:00:39.174Z,7.18
2023-08-29T17:03:10.479Z,7.10
2023-08-29T17:05:38.813Z,8.27
2023-08-29T17:08:07.553Z,6.93
2023-08-29T17:10:37.118Z,8.63
2023-08-29T17:13:04.244Z,8.02
2023-08-29T17:15:31.130Z,10.00
2023-08-29T17:17:59.366Z,6.30
2023-08-29T17:20:26.342Z,6.35
2023-08-29T17:22:53.299Z,6.82
2023-08-29T17:25:20.283Z,6.63
2023-08-29T17:27:47.360Z,5.75
2023-08-29T17:30:14.382Z,5.35
2023-08-29T17:32:41.391Z,5.97
2023-08-29T17:35:08.504Z,6.45
2023-08-29T17:37:40.072Z,5.90
2023-08-29T17:40:07.817Z,5.85
2023-08-29T17:42:35.011Z,5.55
2023-08-29T17:45:01.991Z,6.00
2023-08-29T17:47:28.941Z,6.18
2023-08-29T17:49:58.819Z,5.97
2023-08-29T17:52:25.729Z,6.63
2023-08-29T17:54:52.646Z,6.47
2023-08-29T17:57:19.590Z,5.97
2023-08-29T17:59:49.302Z,6.78
2023-08-29T18:02:16.631Z,6.65
2023-08-29T18:04:44.219Z,7.13
2023-08-29T18:07:11.142Z,6.97
2023-08-29T18:09:38.107Z,7.38
2023-08-29T18:12:05.192Z,7.47
2023-08-29T18:14:32.542Z,7.32
2023-08-29T18:17:00.742Z,7.78
2023-08-29T18:19:27.666Z,7.65
2023-08-29T18:21:54.577Z,7.97
2023-08-29T18:24:21.707Z,8.23
2023-08-29T18:26:48.621Z,7.68
2023-08-29T18:29:15.530Z,7.65
2023-08-29T18:31:42.502Z,7.03
2023-08-29T18:34:09.475Z,7.28
2023-08-29T18:36:38.240Z,7.70
2023-08-29T18:39:08.064Z,8.05
2023-08-29T18:41:37.896Z,9.48
2023-08-29T18:44:05.148Z,7.68
2023-08-29T18:46:32.047Z,7.78
2023-08-29T18:48:58.963Z,8.13
2023-08-29T18:51:25.882Z,9.73
2023-08-29T18:53:52.866Z,8.43
2023-08-29T18:56:21.154Z,8.65
2023-08-29T18:58:48.189Z,9.30
2023-08-29T19:01:15.197Z,9.23
2023-08-29T19:03:42.689Z,9.07
2023-08-29T19:06:12.442Z,9.55
2023-08-29T19:08:49.662Z,9.85
2023-08-29T19:11:19.410Z,9.88
2023-08-29T19:13:46.353Z,10.40
2023-08-29T19:16:13.341Z,9.45
2023-08-29T19:18:40.724Z,10.88
2023-08-29T19:21:07.823Z,9.25
2023-08-29T19:23:34.781Z,9.88
2023-08-29T19:26:03.932Z,9.88
2023-08-29T19:28:30.867Z,9.73
2023-08-29T19:30:57.820Z,9.82
2023-08-29T19:33:24.840Z,9.50
2023-08-29T19:35:51.813Z,9.20
2023-08-29T19:38:18.740Z,9.70
2023-08-29T19:40:45.634Z,9.93
2023-08-29T19:43:12.526Z,9.32
2023-08-29T19:45:39.446Z,9.75
2023-08-29T19:48:07.105Z,10.70
2023-08-29T19:50:34.308Z,9.95
2023-08-29T19:53:01.492Z,10.52
2023-08-29T19:55:28.400Z,10.27
2023-08-29T19:57:55.314Z,9.60
2023-08-29T20:00:22.285Z,10.38
2023-08-29T20:02:49.434Z,9.35
2023-08-29T20:05:16.536Z,9.65
2023-08-29T20:07:43.437Z,9.98
2023-08-29T20:10:10.861Z,9.82
2023-08-29T20:12:37.806Z,9.25
2023-08-29T20:15:05.554Z,9.05
2023-08-29T20:17:32.551Z,10.18
2023-08-29T20:19:59.598Z,10.00
2023-08-29T20:22:26.721Z,10.10
2023-08-29T20:24:53.626Z,9.82
2023-08-29T20:27:20.684Z,10.43
2023-08-29T20:29:50.455Z,8.85
2023-08-29T20:32:17.436Z,9.95
2023-08-29T20:34:46.606Z,9.63
2023-08-29T20:37:13.520Z,9.52
2023-08-29T20:39:40.467Z,9.15
2023-08-29T20:42:07.534Z,9.25
2023-08-29T20:44:34.503Z,9.00
2023-08-29T20:47:01.448Z,9.00
2023-08-29T20:49:28.373Z,8.70
2023-08-29T20:51:55.317Z,10.07
2023-08-29T20:54:22.286Z,8.73
2023-08-29T20:56:49.296Z,8.85
2023-08-29T20:59:16.260Z,9.23
2023-08-29T21:01:43.201Z,9.63
2023-08-29T21:04:10.162Z,8.90
2023-08-29T21:06:39.687Z,9.30
2023-08-29T21:09:06.917Z,9.68
2023-08-29T21:11:33.842Z,9.13
2023-08-29T21:14:00.765Z,9.63
2023-08-29T21:16:27.706Z,9.00
2023-08-29T21:18:54.640Z,8.43
2023-08-29T21:21:21.790Z,10.15
2023-08-29T21:23:52.098Z,9.05
2023-08-29T21:26:19.099Z,8.30
2023-08-29T21:28:46.007Z,8.55
2023-08-29T21:31:12.975Z,8.68
2023-08-29T21:33:39.907Z,8.10
2023-08-29T21:36:07.053Z,8.80
2023-08-29T21:38:34.102Z,7.95
2023-08-29T21:41:04.988Z,7.82
2023-08-29T21:43:31.982Z,8.57
2023-08-29T21:46:02.977Z,8.68
2023-08-29T21:48:30.183Z,8.18
2023-08-29T21:50:58.209Z,7.22
2023-08-29T21:53:25.867Z,8.88
2023-08-29T21:55:53.374Z,8.15
2023-08-29T21:58:20.808Z,8.75
2023-08-29T22:00:52.848Z,7.82
2023-08-29T22:05:51.407Z,7.43
2023-08-29T22:08:19.827Z,8.63
2023-08-29T22:10:47.691Z,8.10
2023-08-29T22:13:14.626Z,8.60
2023-08-29T22:15:41.674Z,8.82
2023-08-29T22:18:08.827Z,7.07
2023-08-29T22:20:36.160Z,7.68
2023-08-29T22:23:03.241Z,7.43
2023-08-29T22:25:30.174Z,8.77
2023-08-29T22:27:57.611Z,7.72
2023-08-29T22:30:24.628Z,8.10
2023-08-29T22:32:51.745Z,7.97
2023-08-29T22:35:19.166Z,7.30
2023-08-29T22:37:46.117Z,7.68
2023-08-29T22:40:13.011Z,6.43
2023-08-29T22:42:39.996Z,6.88
2023-08-29T22:45:07.376Z,7.15
2023-08-29T22:47:34.343Z,7.47
2023-08-29T22:50:01.288Z,7.22
2023-08-29T22:52:28.225Z,7.70
2023-08-29T22:54:55.289Z,7.90
2023-08-29T22:57:22.296Z,7.78
2023-08-29T22:59:49.205Z,6.95
2023-08-29T23:02:16.177Z,6.82
2023-08-29T23:04:43.371Z,7.22
2023-08-29T23:07:10.524Z,7.57
2023-08-29T23:09:38.694Z,6.60
2023-08-29T23:12:06.324Z,6.13
2023-08-29T23:14:33.481Z,7.25
2023-08-29T23:17:00.519Z,6.53
2023-08-29T23:19:28.656Z,6.97
2023-08-29T23:21:56.064Z,6.93
2023-08-29T23:24:22.998Z,6.82
2023-08-29T23:26:49.914Z,6.03
2023-08-29T23:29:17.260Z,6.43
2023-08-29T23:31:44.525Z,5.85
2023-08-29T23:34:11.516Z,6.35
2023-08-29T23:36:38.868Z,6.32
2023-08-29T23:39:06.065Z,5.70
2023-08-29T23:41:33.021Z,4.40
2023-08-29T23:43:59.936Z,3.70
2023-08-29T23:46:26.893Z,3.67
2023-08-29T23:48:53.934Z,3.35
2023-08-29T23:51:20.873Z,3.63
2023-08-29T23:53:47.758Z,3.28
2023-08-29T23:56:14.734Z,3.25
2023-08-29T23:58:41.621Z,2.90
